Time;durP1;ratioP1;P1;durP2;ratioP2;P2;SDS_P1;SDS_P2;PMS_P1;PMS_P2;Temp;Humidity;BMP_temperature;BMP_pressure;BME280_temperature;BME280_humidity;BME280_pressure;Samples;Min_cycle;Max_cycle;Signal;HPM_P1;HPM_P2
2020/12/07 00:00:52;;;;;;;41.80;22.05;;;3.90;99.90;;;;;;467456;254;27556;-73
2020/12/07 00:02:53;;;;;;;41.95;22.05;;;3.90;99.90;;;;;;467518;253;27624;-74
2020/12/07 00:04:54;;;;;;;36.20;21.10;;;3.90;99.90;;;;;;467520;253;28909;-74
2020/12/07 00:06:55;;;;;;;40.35;21.90;;;4.00;99.90;;;;;;467447;253;28010;-74
2020/12/07 00:08:57;;;;;;;44.60;23.25;;;4.00;99.90;;;;;;467427;253;27526;-74
2020/12/07 00:10:58;;;;;;;38.28;21.02;;;4.00;99.90;;;;;;467368;253;27597;-74
2020/12/07 00:12:59;;;;;;;42.38;22.75;;;4.00;99.90;;;;;;467327;253;27533;-74
2020/12/07 00:15:00;;;;;;;37.50;21.55;;;3.90;99.90;;;;;;467335;253;27905;-74
2020/12/07 00:17:02;;;;;;;43.50;22.92;;;3.90;99.90;;;;;;467336;253;27567;-74
2020/12/07 00:19:03;;;;;;;44.90;23.05;;;3.90;99.90;;;;;;467400;253;27545;-75
2020/12/07 00:21:04;;;;;;;47.05;23.77;;;3.90;99.90;;;;;;467298;254;27949;-74
2020/12/07 00:23:06;;;;;;;45.05;22.62;;;3.90;99.90;;;;;;467372;253;28016;-74
2020/12/07 00:25:07;;;;;;;51.13;25.35;;;3.90;99.90;;;;;;467288;253;27559;-75
2020/12/07 00:27:08;;;;;;;50.10;24.35;;;3.90;99.90;;;;;;467281;253;27553;-73
2020/12/07 00:29:09;;;;;;;49.38;24.37;;;3.90;99.90;;;;;;467344;253;27536;-74
2020/12/07 00:31:10;;;;;;;53.33;26.17;;;3.90;99.90;;;;;;467328;254;27550;-74
2020/12/07 00:33:12;;;;;;;51.60;25.15;;;3.90;99.90;;;;;;467374;253;27541;-75
2020/12/07 00:35:13;;;;;;;56.75;25.20;;;3.90;99.90;;;;;;467336;253;27968;-74
2020/12/07 00:37:14;;;;;;;52.60;25.73;;;3.90;99.90;;;;;;467332;253;28103;-73
2020/12/07 00:39:15;;;;;;;50.90;26.30;;;3.90;99.90;;;;;;467316;253;27620;-74
2020/12/07 00:41:17;;;;;;;52.60;25.77;;;3.90;99.90;;;;;;467297;253;27548;-75
2020/12/07 00:43:18;;;;;;;50.20;25.33;;;3.90;99.90;;;;;;467356;253;27556;-74
2020/12/07 00:45:19;;;;;;;56.88;26.40;;;3.90;99.90;;;;;;467340;253;27527;-74
2020/12/07 00:47:20;;;;;;;58.00;27.80;;;3.90;99.90;;;;;;467182;253;28003;-74
2020/12/07 00:49:22;;;;;;;56.90;26.60;;;3.90;99.90;;;;;;467332;253;27666;-74
2020/12/07 00:51:23;;;;;;;64.55;28.20;;;3.90;99.90;;;;;;467312;253;28011;-74
2020/12/07 00:53:24;;;;;;;62.28;28.08;;;3.90;99.90;;;;;;467356;253;28007;-74
2020/12/07 00:55:25;;;;;;;55.30;26.98;;;3.90;99.90;;;;;;467342;253;27543;-74
2020/12/07 00:57:27;;;;;;;54.90;26.58;;;3.90;99.90;;;;;;467399;253;27532;-74
2020/12/07 00:59:28;;;;;;;50.17;25.45;;;3.80;99.90;;;;;;467398;254;27511;-74
2020/12/07 01:01:29;;;;;;;56.63;27.30;;;3.80;99.90;;;;;;467315;254;27547;-74
2020/12/07 01:03:31;;;;;;;53.85;26.02;;;3.90;99.90;;;;;;467357;254;27849;-74
2020/12/07 01:05:32;;;;;;;60.90;28.95;;;3.90;99.90;;;;;;467367;253;27561;-74
2020/12/07 01:07:33;;;;;;;56.28;26.90;;;3.90;99.90;;;;;;467401;253;28047;-74
2020/12/07 01:09:34;;;;;;;48.85;24.63;;;3.90;99.90;;;;;;467386;253;29066;-74
2020/12/07 01:11:36;;;;;;;54.03;27.02;;;3.90;99.90;;;;;;467330;253;27625;-73
2020/12/07 01:13:39;;;;;;;51.17;24.50;;;3.90;99.90;;;;;;467363;253;27549;-74
2020/12/07 01:15:38;;;;;;;42.95;23.42;;;3.90;99.90;;;;;;467386;254;27615;-74
2020/12/07 01:17:39;;;;;;;54.17;24.37;;;3.90;99.90;;;;;;467405;253;27624;-74
2020/12/07 01:19:41;;;;;;;48.67;24.08;;;3.80;99.90;;;;;;467401;253;27505;-74
2020/12/07 01:21:42;;;;;;;46.97;23.25;;;3.80;99.90;;;;;;467485;251;28101;-76
2020/12/07 01:23:44;;;;;;;54.00;24.08;;;3.80;99.90;;;;;;467292;251;30311;-73
2020/12/07 01:25:44;;;;;;;47.65;23.65;;;3.90;99.90;;;;;;467252;253;27515;-74
2020/12/07 01:27:46;;;;;;;46.22;23.38;;;3.90;99.90;;;;;;467122;254;27560;-74
2020/12/07 01:29:47;;;;;;;49.75;24.15;;;3.90;99.90;;;;;;467020;253;27552;-74
2020/12/07 01:31:48;;;;;;;40.50;22.23;;;3.90;99.90;;;;;;467309;253;27533;-74
2020/12/07 01:33:49;;;;;;;45.08;23.45;;;3.80;99.90;;;;;;467358;254;28033;-75
2020/12/07 01:35:51;;;;;;;45.47;22.08;;;3.80;99.90;;;;;;467420;253;27540;-74
2020/12/07 01:37:52;;;;;;;47.65;23.30;;;3.90;99.90;;;;;;467198;253;28080;-74
2020/12/07 01:39:53;;;;;;;43.60;22.33;;;3.80;99.90;;;;;;467336;253;28748;-73
2020/12/07 01:41:54;;;;;;;39.80;21.45;;;3.80;99.90;;;;;;467321;253;27612;-74
2020/12/07 01:43:56;;;;;;;51.70;23.73;;;3.90;99.90;;;;;;467325;253;27682;-75
2020/12/07 01:45:57;;;;;;;42.25;21.98;;;3.80;99.90;;;;;;467362;253;27524;-74
2020/12/07 01:47:58;;;;;;;43.50;22.85;;;3.80;99.90;;;;;;467253;253;27537;-76
2020/12/07 01:49:59;;;;;;;46.22;22.83;;;3.80;99.90;;;;;;467381;253;27642;-73
2020/12/07 01:52:01;;;;;;;42.35;21.58;;;3.80;99.90;;;;;;467303;254;27545;-74
2020/12/07 01:54:02;;;;;;;47.53;23.17;;;3.80;99.90;;;;;;467325;253;28867;-73
2020/12/07 01:56:03;;;;;;;52.38;25.23;;;3.80;99.90;;;;;;467355;253;29056;-73
2020/12/07 01:58:04;;;;;;;47.17;23.25;;;3.80;99.90;;;;;;467377;253;27542;-76
2020/12/07 02:00:06;;;;;;;48.78;22.05;;;3.80;99.90;;;;;;467314;253;27659;-75
2020/12/07 02:02:07;;;;;;;55.45;24.65;;;3.80;99.90;;;;;;467344;253;27569;-73
2020/12/07 02:04:08;;;;;;;51.03;24.70;;;3.80;99.90;;;;;;467330;253;27543;-73
2020/12/07 02:06:09;;;;;;;49.00;25.20;;;3.70;99.90;;;;;;467348;253;27536;-74
2020/12/07 02:08:11;;;;;;;53.03;26.10;;;3.80;99.90;;;;;;467298;253;28096;-75
2020/12/07 02:10:12;;;;;;;49.08;25.20;;;3.70;99.90;;;;;;467220;254;29235;-73
2020/12/07 02:12:13;;;;;;;63.33;28.55;;;3.70;99.90;;;;;;467320;253;27553;-74
2020/12/07 02:14:14;;;;;;;57.50;27.70;;;3.70;99.90;;;;;;467310;253;27627;-73
2020/12/07 02:16:16;;;;;;;52.13;25.40;;;3.70;99.90;;;;;;467323;253;27517;-74
2020/12/07 02:18:17;;;;;;;51.70;26.23;;;3.70;99.90;;;;;;467338;253;27545;-73
2020/12/07 02:20:18;;;;;;;53.95;26.05;;;3.70;99.90;;;;;;467289;253;27548;-74
2020/12/07 02:22:20;;;;;;;48.92;24.60;;;3.80;99.90;;;;;;467319;253;27553;-74
2020/12/07 02:24:21;;;;;;;50.03;24.20;;;3.80;99.90;;;;;;467373;253;28884;-73
2020/12/07 02:26:22;;;;;;;57.08;27.98;;;3.80;99.90;;;;;;467377;253;28202;-74
2020/12/07 02:28:23;;;;;;;46.72;23.75;;;3.80;99.90;;;;;;467342;254;27587;-75
2020/12/07 02:30:25;;;;;;;47.40;24.60;;;3.80;99.90;;;;;;467296;254;27547;-74
2020/12/07 02:32:26;;;;;;;50.72;25.52;;;3.80;99.90;;;;;;467343;253;27537;-74
2020/12/07 02:34:27;;;;;;;46.22;24.85;;;3.80;99.90;;;;;;467343;253;27910;-73
2020/12/07 02:36:28;;;;;;;49.92;24.30;;;3.80;99.90;;;;;;467365;253;27632;-72
2020/12/07 02:38:30;;;;;;;50.20;24.87;;;3.80;99.90;;;;;;467361;253;28137;-74
2020/12/07 02:40:31;;;;;;;53.00;26.37;;;3.90;99.90;;;;;;467307;254;28012;-73
2020/12/07 02:42:35;;;;;;;54.15;27.15;;;3.90;99.90;;;;;;467331;253;28258;-74
2020/12/07 02:44:33;;;;;;;54.05;26.10;;;3.80;99.90;;;;;;467374;252;27508;-73
2020/12/07 02:46:35;;;;;;;54.90;26.90;;;3.80;99.90;;;;;;467338;253;27629;-74
2020/12/07 02:48:36;;;;;;;48.53;26.40;;;3.80;99.90;;;;;;467212;253;28004;-73
2020/12/07 02:50:37;;;;;;;55.90;27.75;;;3.70;99.90;;;;;;467282;254;27644;-73
2020/12/07 02:52:38;;;;;;;49.35;25.58;;;3.80;99.90;;;;;;467391;253;27553;-75
2020/12/07 02:54:40;;;;;;;54.13;27.45;;;3.70;99.90;;;;;;467353;253;27956;-73
2020/12/07 02:56:41;;;;;;;52.40;27.30;;;3.70;99.90;;;;;;467330;253;28200;-73
2020/12/07 02:58:42;;;;;;;52.75;26.10;;;3.70;99.90;;;;;;467344;253;27652;-73
2020/12/07 03:00:43;;;;;;;53.35;28.27;;;3.70;99.90;;;;;;467334;253;27620;-73
2020/12/07 03:02:45;;;;;;;53.70;26.65;;;3.70;99.90;;;;;;467396;253;27589;-75
2020/12/07 03:04:46;;;;;;;62.03;29.50;;;3.80;99.90;;;;;;467436;253;27567;-73
2020/12/07 03:06:47;;;;;;;57.80;28.70;;;3.80;99.90;;;;;;467496;253;27689;-73
2020/12/07 03:08:48;;;;;;;56.83;28.20;;;3.80;99.90;;;;;;467546;253;27592;-73
2020/12/07 03:10:50;;;;;;;50.15;26.73;;;3.80;99.90;;;;;;467491;253;28062;-73
2020/12/07 03:12:51;;;;;;;49.35;26.12;;;3.70;99.90;;;;;;467551;253;28024;-74
2020/12/07 03:14:52;;;;;;;54.03;28.60;;;3.60;99.90;;;;;;467503;253;27626;-73
2020/12/07 03:16:53;;;;;;;51.78;26.12;;;3.60;99.90;;;;;;467508;253;27545;-73
2020/12/07 03:18:55;;;;;;;51.85;26.50;;;3.60;99.90;;;;;;467483;253;27618;-75
2020/12/07 03:20:56;;;;;;;56.67;27.87;;;3.60;99.90;;;;;;467448;253;27929;-73
2020/12/07 03:22:57;;;;;;;51.08;26.02;;;3.60;99.90;;;;;;467475;253;27649;-73
2020/12/07 03:25:00;;;;;;;45.83;26.23;;;3.70;99.90;;;;;;467389;253;27970;-74
2020/12/07 03:27:00;;;;;;;50.67;27.02;;;3.70;99.90;;;;;;467368;253;28031;-73
2020/12/07 03:29:04;;;;;;;50.30;25.90;;;3.70;99.90;;;;;;467361;253;27998;-73
2020/12/07 03:31:05;;;;;;;46.97;24.73;;;3.70;99.90;;;;;;467340;253;27575;-74
2020/12/07 03:33:06;;;;;;;55.53;25.05;;;3.70;99.90;;;;;;467368;253;27657;-73
2020/12/07 03:35:07;;;;;;;47.60;23.77;;;3.70;99.90;;;;;;467407;253;27907;-74
2020/12/07 03:37:09;;;;;;;47.70;24.30;;;3.70;99.90;;;;;;467420;253;27529;-73
2020/12/07 03:39:10;;;;;;;43.35;23.15;;;3.60;99.90;;;;;;467367;253;28103;-73
2020/12/07 03:41:11;;;;;;;42.65;23.38;;;3.50;99.90;;;;;;467324;253;28019;-74
2020/12/07 03:43:12;;;;;;;42.85;22.77;;;3.40;99.90;;;;;;467388;253;27653;-73
2020/12/07 03:45:14;;;;;;;46.88;23.70;;;3.50;99.90;;;;;;467421;253;27555;-74
2020/12/07 03:47:15;;;;;;;37.50;21.83;;;3.50;99.90;;;;;;467399;253;28039;-73
2020/12/07 03:49:16;;;;;;;43.70;22.33;;;3.50;99.90;;;;;;467306;253;27627;-73
2020/12/07 03:51:17;;;;;;;38.67;21.80;;;3.40;99.90;;;;;;467325;253;27544;-73
2020/12/07 03:53:19;;;;;;;38.72;21.12;;;3.40;99.90;;;;;;467372;254;27610;-73
2020/12/07 03:55:20;;;;;;;39.20;21.90;;;3.40;99.90;;;;;;467367;254;28046;-74
2020/12/07 03:57:21;;;;;;;38.75;22.62;;;3.40;99.90;;;;;;467366;253;28006;-74
2020/12/07 03:59:23;;;;;;;39.50;20.02;;;3.40;99.90;;;;;;467352;253;27572;-74
2020/12/07 04:01:24;;;;;;;41.97;23.50;;;3.40;99.90;;;;;;467302;253;27548;-74
2020/12/07 04:03:26;;;;;;;36.97;21.08;;;3.50;99.90;;;;;;467355;254;27625;-73
2020/12/07 04:05:32;;;;;;;40.47;20.42;;;3.40;99.90;;;;;;467368;254;27991;-73
2020/12/07 04:07:28;;;;;;;34.33;20.60;;;3.50;99.90;;;;;;467399;253;27617;-74
2020/12/07 04:09:29;;;;;;;35.97;20.55;;;3.40;99.90;;;;;;467306;254;28091;-73
2020/12/07 04:11:30;;;;;;;33.92;19.17;;;3.40;99.90;;;;;;467234;253;28138;-75
2020/12/07 04:13:32;;;;;;;40.60;21.30;;;3.30;99.90;;;;;;467310;253;27763;-73
2020/12/07 04:15:33;;;;;;;38.95;20.40;;;3.40;99.90;;;;;;467297;253;27684;-73
2020/12/07 04:17:34;;;;;;;34.47;19.58;;;3.30;99.90;;;;;;467304;253;27557;-74
2020/12/07 04:19:35;;;;;;;33.88;19.62;;;3.30;99.90;;;;;;467350;254;27528;-74
2020/12/07 04:21:36;;;;;;;34.47;19.05;;;3.30;99.90;;;;;;467312;253;27618;-73
2020/12/07 04:23:38;;;;;;;33.88;19.23;;;3.30;99.90;;;;;;467323;253;27563;-74
2020/12/07 04:25:39;;;;;;;36.65;19.23;;;3.30;99.90;;;;;;467387;254;28740;-74
2020/12/07 04:27:40;;;;;;;31.12;18.65;;;3.30;99.90;;;;;;467346;253;28030;-73
2020/12/07 04:29:41;;;;;;;33.35;19.05;;;3.40;99.90;;;;;;467345;254;27545;-74
2020/12/07 04:31:43;;;;;;;34.17;18.55;;;3.40;99.90;;;;;;467350;253;27644;-73
2020/12/07 04:33:44;;;;;;;31.20;17.40;;;3.40;99.90;;;;;;467366;254;27631;-74
2020/12/07 04:35:45;;;;;;;31.92;17.60;;;3.40;99.90;;;;;;467380;253;27626;-73
2020/12/07 04:37:46;;;;;;;32.88;16.73;;;3.40;99.90;;;;;;467367;253;27659;-73
2020/12/07 04:39:48;;;;;;;31.15;17.20;;;3.50;99.90;;;;;;467397;253;27559;-75
2020/12/07 04:41:49;;;;;;;34.95;19.00;;;3.40;99.90;;;;;;467416;253;27951;-73
2020/12/07 04:43:50;;;;;;;29.63;18.08;;;3.40;99.90;;;;;;467489;253;29097;-73
2020/12/07 04:45:51;;;;;;;32.47;18.60;;;3.50;99.90;;;;;;467496;253;27600;-73
2020/12/07 04:47:53;;;;;;;32.13;18.58;;;3.40;99.90;;;;;;467366;253;27631;-74
2020/12/07 04:49:57;;;;;;;32.83;17.67;;;3.40;99.90;;;;;;467551;253;27544;-76
2020/12/07 04:51:58;;;;;;;35.15;18.55;;;3.50;99.90;;;;;;467506;253;27558;-76
2020/12/07 04:53:59;;;;;;;35.90;18.95;;;3.50;99.90;;;;;;467538;253;28020;-73
2020/12/07 04:56:01;;;;;;;32.95;19.90;;;3.40;99.90;;;;;;467562;253;28042;-74
2020/12/07 04:58:02;;;;;;;34.10;18.58;;;3.40;99.90;;;;;;467572;253;27672;-75
2020/12/07 05:00:03;;;;;;;30.52;18.23;;;3.40;99.90;;;;;;467488;253;27623;-73
2020/12/07 05:02:04;;;;;;;35.42;18.58;;;3.50;99.90;;;;;;467405;253;27536;-74
2020/12/07 05:04:06;;;;;;;37.03;20.15;;;3.50;99.90;;;;;;467407;253;27589;-73
2020/12/07 05:06:07;;;;;;;37.47;20.30;;;3.50;99.90;;;;;;467369;253;27639;-73
2020/12/07 05:08:08;;;;;;;31.87;18.35;;;3.40;99.90;;;;;;467371;253;27552;-73
2020/12/07 05:10:15;;;;;;;34.65;19.83;;;3.40;99.90;;;;;;467302;254;28024;-73
2020/12/07 05:12:21;;;;;;;39.13;20.17;;;3.40;99.90;;;;;;467372;253;27955;-73
2020/12/07 05:14:18;;;;;;;36.80;20.92;;;3.40;99.90;;;;;;467402;253;29008;-73
2020/12/07 05:16:19;;;;;;;42.38;21.37;;;3.30;99.90;;;;;;467374;253;28125;-73
2020/12/07 05:18:20;;;;;;;43.22;21.58;;;3.40;99.90;;;;;;467357;253;27536;-73
2020/12/07 05:20:22;;;;;;;33.97;19.87;;;3.40;99.90;;;;;;467324;254;27589;-73
2020/12/07 05:22:23;;;;;;;38.78;21.55;;;3.40;99.90;;;;;;467279;254;27555;-76
2020/12/07 05:24:24;;;;;;;35.75;20.15;;;3.40;99.90;;;;;;467361;253;28027;-76
2020/12/07 05:26:26;;;;;;;43.75;22.40;;;3.40;99.90;;;;;;467366;253;27567;-73
2020/12/07 05:28:29;;;;;;;40.22;21.77;;;3.30;99.90;;;;;;467370;253;27632;-74
2020/12/07 05:30:32;;;;;;;41.58;20.95;;;3.30;99.90;;;;;;467320;253;27997;-73
2020/12/07 05:32:29;;;;;;;39.67;20.60;;;3.20;99.90;;;;;;467654;253;27961;-74
2020/12/07 05:34:30;;;;;;;41.67;21.50;;;3.20;99.90;;;;;;467464;253;27556;-73
2020/12/07 05:36:32;;;;;;;49.38;23.00;;;3.20;99.90;;;;;;467377;253;27627;-74
2020/12/07 05:38:33;;;;;;;42.50;22.87;;;3.30;99.90;;;;;;467356;253;27624;-74
2020/12/07 05:40:34;;;;;;;40.88;21.77;;;3.30;99.90;;;;;;467318;254;27552;-73
2020/12/07 05:42:35;;;;;;;42.70;22.10;;;3.30;99.90;;;;;;467380;253;27540;-73
2020/12/07 05:44:37;;;;;;;38.20;21.40;;;3.30;99.90;;;;;;467369;253;27553;-73
2020/12/07 05:46:38;;;;;;;36.75;20.62;;;3.30;99.90;;;;;;467337;253;28022;-73
2020/12/07 05:48:39;;;;;;;37.35;21.15;;;3.30;99.90;;;;;;467218;253;28028;-73
2020/12/07 05:50:41;;;;;;;40.45;22.13;;;3.30;99.90;;;;;;467129;254;27558;-75
2020/12/07 05:52:42;;;;;;;51.42;24.02;;;3.20;99.90;;;;;;467365;254;27493;-73
2020/12/07 05:54:43;;;;;;;41.25;21.73;;;3.20;99.90;;;;;;467338;253;27549;-73
2020/12/07 05:56:44;;;;;;;37.72;20.52;;;3.20;99.90;;;;;;467324;253;27552;-75
2020/12/07 05:58:46;;;;;;;44.17;21.67;;;3.20;99.90;;;;;;467131;254;27516;-75
2020/12/07 06:00:47;;;;;;;37.47;19.75;;;3.30;99.90;;;;;;467365;253;28005;-74
2020/12/07 06:02:48;;;;;;;42.17;22.75;;;3.30;99.90;;;;;;467380;253;28070;-73
2020/12/07 06:04:49;;;;;;;40.75;21.60;;;3.30;99.90;;;;;;467359;253;27659;-73
2020/12/07 06:06:51;;;;;;;41.13;22.75;;;3.30;99.90;;;;;;467371;254;27632;-74
2020/12/07 06:08:52;;;;;;;39.33;21.75;;;3.30;99.90;;;;;;467412;253;27497;-73
2020/12/07 06:10:53;;;;;;;39.85;22.15;;;3.30;99.90;;;;;;467443;253;27615;-74
2020/12/07 06:12:54;;;;;;;35.28;19.67;;;3.30;99.90;;;;;;467494;253;27560;-74
2020/12/07 06:14:56;;;;;;;38.83;21.23;;;3.30;99.90;;;;;;467506;253;27532;-73
2020/12/07 06:16:57;;;;;;;37.92;20.75;;;3.30;99.90;;;;;;467491;253;28019;-74
2020/12/07 06:18:58;;;;;;;41.05;20.55;;;3.20;99.90;;;;;;467505;254;29130;-73
2020/12/07 06:20:59;;;;;;;38.55;20.35;;;3.20;99.90;;;;;;467462;253;27527;-73
2020/12/07 06:23:01;;;;;;;46.47;23.17;;;3.30;99.90;;;;;;467510;253;27512;-73
2020/12/07 06:25:02;;;;;;;39.72;20.70;;;3.20;99.90;;;;;;467502;253;27558;-73
2020/12/07 06:27:03;;;;;;;38.70;20.77;;;3.30;99.90;;;;;;467507;253;27916;-74
2020/12/07 06:29:05;;;;;;;32.40;19.50;;;3.30;99.90;;;;;;467349;253;27543;-73
2020/12/07 06:31:06;;;;;;;36.75;20.98;;;3.30;99.90;;;;;;467366;253;28031;-73
2020/12/07 06:33:07;;;;;;;34.50;19.58;;;3.30;99.90;;;;;;467389;253;28019;-74
2020/12/07 06:35:09;;;;;;;33.45;19.05;;;3.30;99.90;;;;;;467382;253;27500;-73
2020/12/07 06:37:10;;;;;;;36.58;21.17;;;3.20;99.90;;;;;;467359;253;27549;-73
2020/12/07 06:39:11;;;;;;;37.15;20.30;;;3.20;99.90;;;;;;467359;253;27578;-75
2020/12/07 06:41:12;;;;;;;34.83;19.70;;;3.20;99.90;;;;;;467316;253;27560;-73
2020/12/07 06:43:14;;;;;;;41.83;21.23;;;3.20;99.90;;;;;;467364;253;28041;-73
2020/12/07 06:45:15;;;;;;;37.83;20.60;;;3.20;99.90;;;;;;467384;254;27524;-73
2020/12/07 06:47:19;;;;;;;35.72;21.12;;;3.20;99.90;;;;;;467322;253;28008;-74
2020/12/07 06:49:18;;;;;;;36.50;19.70;;;3.20;99.90;;;;;;467222;253;28025;-74
2020/12/07 06:51:19;;;;;;;39.17;20.55;;;3.20;99.90;;;;;;467307;253;27538;-73
2020/12/07 06:53:25;;;;;;;37.83;20.27;;;3.20;99.90;;;;;;467374;253;27572;-73
2020/12/07 06:55:21;;;;;;;40.92;21.67;;;3.20;99.90;;;;;;467334;253;27529;-73
2020/12/07 06:57:22;;;;;;;37.78;21.58;;;3.20;99.90;;;;;;467330;254;27549;-73
2020/12/07 06:59:25;;;;;;;34.97;19.50;;;3.20;99.90;;;;;;467323;253;27555;-74
2020/12/07 07:01:25;;;;;;;35.10;18.67;;;3.20;99.90;;;;;;467285;254;27666;-73
2020/12/07 07:03:26;;;;;;;37.15;19.77;;;3.20;99.90;;;;;;467364;253;28104;-73
2020/12/07 07:05:31;;;;;;;33.08;19.62;;;3.20;99.90;;;;;;467370;253;28040;-74
2020/12/07 07:07:29;;;;;;;31.25;19.12;;;3.20;99.90;;;;;;467700;252;27630;-73
2020/12/07 07:09:30;;;;;;;33.60;18.75;;;3.20;99.90;;;;;;467687;253;27499;-73
2020/12/07 07:11:31;;;;;;;33.45;18.73;;;3.30;99.90;;;;;;467658;253;27494;-74
2020/12/07 07:13:33;;;;;;;33.58;19.50;;;3.30;99.90;;;;;;468545;251;27505;-75
2020/12/07 07:15:34;;;;;;;31.90;19.55;;;3.30;99.90;;;;;;472872;251;27398;-75
2020/12/07 07:17:35;;;;;;;29.25;17.85;;;3.20;99.90;;;;;;472926;251;27864;-75
2020/12/07 07:19:36;;;;;;;32.70;19.90;;;3.20;99.90;;;;;;472889;251;29013;-75
2020/12/07 07:21:38;;;;;;;37.58;20.35;;;3.30;99.90;;;;;;472889;251;27482;-75
2020/12/07 07:23:40;;;;;;;31.33;18.30;;;3.20;99.90;;;;;;472907;251;27525;-74
2020/12/07 07:25:57;;;;;;;29.27;18.85;;;3.20;99.90;;;;;;472894;251;27963;-74
2020/12/07 07:28:04;;;;;;;30.33;18.45;;;3.30;99.90;;;;;;472599;251;27472;-75
2020/12/07 07:29:57;;;;;;;34.10;19.17;;;3.20;99.90;;;;;;472461;251;27518;-75
2020/12/07 07:31:59;;;;;;;31.37;19.12;;;3.30;99.90;;;;;;472489;251;27520;-74
2020/12/07 07:34:00;;;;;;;32.25;18.80;;;3.30;99.90;;;;;;472486;251;27835;-73
2020/12/07 07:36:01;;;;;;;32.92;19.65;;;3.30;99.90;;;;;;472417;251;27556;-74
2020/12/07 07:38:02;;;;;;;31.12;18.02;;;3.20;99.90;;;;;;472463;251;28308;-75
2020/12/07 07:40:04;;;;;;;30.15;18.70;;;3.30;99.90;;;;;;472502;251;28694;-75
2020/12/07 07:42:05;;;;;;;30.33;19.15;;;3.30;99.90;;;;;;472569;251;27480;-74
2020/12/07 07:44:06;;;;;;;31.45;19.48;;;3.30;99.90;;;;;;472604;251;27453;-74
2020/12/07 07:46:07;;;;;;;27.23;18.58;;;3.30;99.90;;;;;;472632;251;27402;-74
2020/12/07 07:48:14;;;;;;;31.98;19.52;;;3.30;99.90;;;;;;472476;251;27522;-75
2020/12/07 07:50:41;;;;;;;32.63;20.00;;;3.30;99.90;;;;;;472623;251;27798;-74
2020/12/07 08:02:10;;;;;;;35.00;20.80;;;3.40;99.90;;;;;;472371;251;27975;-76
2020/12/07 08:06:35;;;;;;;30.85;18.67;;;3.30;99.90;;;;;;473380;249;27569;-75
2020/12/07 08:13:05;;;;;;;27.17;18.20;;;3.30;99.90;;;;;;473463;250;27562;-75
2020/12/07 08:17:06;;;;;;;30.80;19.12;;;3.40;99.90;;;;;;473437;251;27961;-75
2020/12/07 08:19:07;;;;;;;28.23;18.30;;;3.40;99.90;;;;;;473488;249;27631;-75
2020/12/07 08:21:09;;;;;;;31.33;19.58;;;3.40;99.90;;;;;;473465;249;27629;-75
2020/12/07 08:23:10;;;;;;;32.72;21.20;;;3.40;99.90;;;;;;473817;249;27506;-75
2020/12/07 08:25:12;;;;;;;33.15;20.12;;;3.50;99.90;;;;;;473833;249;27507;-75
2020/12/07 08:27:12;;;;;;;32.58;20.12;;;3.50;99.90;;;;;;473593;249;27653;-76
2020/12/07 08:29:13;;;;;;;32.30;19.70;;;3.50;99.90;;;;;;473442;249;27527;-74
2020/12/07 08:31:16;;;;;;;31.52;20.02;;;3.50;99.90;;;;;;473411;249;28069;-76
2020/12/07 08:33:16;;;;;;;31.65;19.40;;;3.50;99.90;;;;;;473718;249;28023;-75
2020/12/07 08:35:18;;;;;;;30.08;19.70;;;3.60;99.90;;;;;;473784;249;27605;-76
2020/12/07 08:37:19;;;;;;;28.38;18.70;;;3.60;99.90;;;;;;473834;249;27522;-76
2020/12/07 08:39:20;;;;;;;30.27;19.55;;;3.60;99.90;;;;;;473817;249;27508;-75
2020/12/07 08:41:21;;;;;;;30.92;20.05;;;3.60;99.90;;;;;;473523;249;27537;-78
2020/12/07 08:43:22;;;;;;;29.15;20.05;;;3.60;99.90;;;;;;473458;249;27654;-75
2020/12/07 08:45:24;;;;;;;31.98;19.50;;;3.60;99.90;;;;;;473430;249;27585;-75
2020/12/07 08:47:25;;;;;;;35.38;21.92;;;3.70;99.90;;;;;;473379;249;28015;-76
2020/12/07 08:49:26;;;;;;;32.08;19.70;;;3.70;99.90;;;;;;473441;249;29304;-75
2020/12/07 08:51:27;;;;;;;32.38;20.15;;;3.70;99.90;;;;;;473437;249;27531;-78
2020/12/07 08:53:29;;;;;;;35.15;20.20;;;3.70;99.90;;;;;;471045;249;27640;-79
2020/12/07 08:55:30;;;;;;;30.02;18.87;;;3.70;99.90;;;;;;472512;251;27461;-73
2020/12/07 08:57:31;;;;;;;32.03;19.87;;;3.70;99.90;;;;;;472578;251;27455;-75
2020/12/07 08:59:32;;;;;;;30.02;19.83;;;3.80;99.90;;;;;;472609;251;27406;-75
2020/12/07 09:01:34;;;;;;;34.22;21.25;;;3.90;99.90;;;;;;472614;251;27466;-75
2020/12/07 09:03:35;;;;;;;31.65;19.95;;;3.80;99.90;;;;;;472644;251;28797;-76
2020/12/07 09:05:38;;;;;;;29.50;19.98;;;3.90;99.90;;;;;;472682;251;28061;-74
2020/12/07 09:07:37;;;;;;;33.05;21.05;;;3.90;99.90;;;;;;472735;251;27458;-74
2020/12/07 09:09:39;;;;;;;28.95;19.35;;;3.90;99.90;;;;;;472752;251;27407;-75
2020/12/07 09:11:40;;;;;;;27.40;19.23;;;3.90;99.90;;;;;;472661;251;27435;-74
2020/12/07 09:13:41;;;;;;;31.12;19.10;;;3.90;99.90;;;;;;472646;251;27446;-77
2020/12/07 09:15:42;;;;;;;32.65;20.15;;;3.90;99.90;;;;;;472594;251;27514;-75
2020/12/07 09:17:44;;;;;;;30.10;19.23;;;3.80;99.90;;;;;;472565;251;28044;-78
2020/12/07 09:19:45;;;;;;;28.75;18.92;;;3.80;99.90;;;;;;472603;251;28692;-76
2020/12/07 09:21:46;;;;;;;32.92;19.48;;;3.90;99.90;;;;;;472553;251;27473;-76
2020/12/07 09:23:48;;;;;;;31.00;18.55;;;3.90;99.90;;;;;;472542;251;27513;-75
2020/12/07 09:25:49;;;;;;;30.33;18.85;;;3.90;99.90;;;;;;472534;251;27419;-75
2020/12/07 09:27:50;;;;;;;28.50;19.20;;;3.90;99.90;;;;;;472467;251;27446;-74
2020/12/07 09:29:51;;;;;;;28.05;17.95;;;4.00;99.90;;;;;;472468;251;27445;-73
2020/12/07 09:31:53;;;;;;;27.13;17.65;;;4.00;99.90;;;;;;472470;251;27453;-75
2020/12/07 09:33:54;;;;;;;29.10;18.30;;;4.10;99.90;;;;;;472248;251;28104;-76
2020/12/07 09:35:55;;;;;;;27.33;18.75;;;4.10;99.90;;;;;;472459;251;29788;-75
2020/12/07 09:37:56;;;;;;;32.63;19.52;;;4.10;99.90;;;;;;472542;251;27525;-75
2020/12/07 09:39:58;;;;;;;25.77;17.87;;;4.10;99.90;;;;;;473063;250;27548;-74
2020/12/07 09:41:59;;;;;;;23.67;15.77;;;4.20;99.90;;;;;;473013;251;27537;-73
2020/12/07 09:44:00;;;;;;;22.77;15.00;;;4.20;99.90;;;;;;473007;250;27641;-74
2020/12/07 09:46:01;;;;;;;22.95;14.57;;;4.30;99.90;;;;;;473036;251;27540;-75
2020/12/07 09:48:03;;;;;;;20.60;14.20;;;4.40;99.90;;;;;;472888;250;27545;-73
2020/12/07 09:50:04;;;;;;;20.62;13.05;;;4.40;99.90;;;;;;472987;250;28171;-75
2020/12/07 09:52:05;;;;;;;19.23;12.50;;;4.30;99.90;;;;;;473049;250;28025;-73
2020/12/07 09:54:06;;;;;;;17.55;12.32;;;4.40;99.90;;;;;;473001;250;27521;-74
2020/12/07 09:56:08;;;;;;;20.52;13.60;;;4.40;99.90;;;;;;473057;250;27557;-76
2020/12/07 09:58:09;;;;;;;22.80;15.30;;;4.40;99.90;;;;;;473037;250;27569;-74
2020/12/07 10:00:10;;;;;;;21.95;14.27;;;4.40;99.90;;;;;;472998;250;27621;-75
2020/12/07 10:02:11;;;;;;;23.10;14.38;;;4.30;99.90;;;;;;473046;250;27543;-77
2020/12/07 10:04:13;;;;;;;18.55;13.70;;;4.40;99.90;;;;;;473006;251;28086;-77
2020/12/07 10:06:14;;;;;;;20.90;14.30;;;4.40;99.90;;;;;;473031;250;28020;-75
2020/12/07 10:08:15;;;;;;;21.98;13.73;;;4.40;99.90;;;;;;473043;250;27644;-77
2020/12/07 10:10:16;;;;;;;19.62;14.63;;;4.50;99.90;;;;;;472955;250;27633;-74
2020/12/07 10:12:18;;;;;;;18.67;12.55;;;4.50;99.90;;;;;;472986;250;27905;-74
2020/12/07 10:14:19;;;;;;;19.08;12.98;;;4.50;99.90;;;;;;472696;251;27569;-73
2020/12/07 10:16:20;;;;;;;21.02;13.70;;;4.50;99.90;;;;;;472949;250;27559;-73
2020/12/07 10:18:21;;;;;;;24.92;12.13;;;4.60;99.90;;;;;;472899;250;28791;-75
2020/12/07 10:20:23;;;;;;;17.55;12.20;;;4.60;99.90;;;;;;472821;251;28102;-74
2020/12/07 10:22:24;;;;;;;18.62;12.52;;;4.60;99.90;;;;;;473131;250;27548;-74
2020/12/07 10:24:25;;;;;;;18.27;12.18;;;4.40;99.90;;;;;;473127;250;27482;-73
2020/12/07 10:26:26;;;;;;;17.50;11.35;;;4.30;99.90;;;;;;473128;250;27533;-74
2020/12/07 10:28:28;;;;;;;18.12;12.52;;;4.40;99.90;;;;;;473104;250;28033;-74
2020/12/07 10:30:29;;;;;;;19.37;11.60;;;4.30;99.90;;;;;;473120;250;27501;-74
2020/12/07 10:32:30;;;;;;;19.20;12.02;;;4.40;99.90;;;;;;473188;250;27997;-73
2020/12/07 10:34:31;;;;;;;18.42;12.20;;;4.60;99.90;;;;;;473242;251;27965;-78
2020/12/07 10:36:33;;;;;;;20.55;13.70;;;4.60;99.90;;;;;;473254;250;27633;-74
2020/12/07 10:38:34;;;;;;;20.25;12.75;;;4.50;99.90;;;;;;473282;250;27619;-75
2020/12/07 10:40:35;;;;;;;20.10;13.50;;;4.50;99.90;;;;;;473252;250;27521;-77